Weather at Depati Amir Airport

Public forecast

Using degrees Celsius for public forecast. Weather courtesy of forecast.io.

Closest aviation weather report (METAR) to Depati Amir Airport

Closest report is Sultan Mahmud Badaruddin II Airport, 97.1 nm (179.7 km) WSW.

2024/06/16 12:30 (retrieved 34 minutes ago)

WIPP 161230Z 11003KT 7000 SCT010 30/24 Q1008 NOSIG

Closest aviation forecast (TAF) to Depati Amir Airport

Closest forecast is Sultan Mahmud Badaruddin II Airport, 97.1 nm (179.7 km) WSW.

2024/06/16 12:06 (retrieved 58 minutes ago)

TAF WIPP 161100Z 1612/1712 23005KT 7000 SCT010 TEMPO 1622/1701 3000 BR